sensor_id;sensor_type;location;lat;lon;timestamp;P1;durP1;ratioP1;P2;durP2;ratioP2
34711;SDS011;20941;42.408;25.634;2022-12-07T00:01:36;49.03;;;21.92;;
34711;SDS011;20941;42.408;25.634;2022-12-07T00:04:04;49.03;;;21.80;;
34711;SDS011;20941;42.408;25.634;2022-12-07T00:06:32;51.72;;;22.48;;
34711;SDS011;20941;42.408;25.634;2022-12-07T00:08:59;47.47;;;22.00;;
34711;SDS011;20941;42.408;25.634;2022-12-07T00:11:24;47.08;;;21.98;;
34711;SDS011;20941;42.408;25.634;2022-12-07T00:13:52;51.03;;;22.33;;
34711;SDS011;20941;42.408;25.634;2022-12-07T00:16:20;46.58;;;21.67;;
34711;SDS011;20941;42.408;25.634;2022-12-07T00:18:47;47.05;;;20.58;;
34711;SDS011;20941;42.408;25.634;2022-12-07T00:21:13;48.55;;;21.33;;
34711;SDS011;20941;42.408;25.634;2022-12-07T00:23:41;50.35;;;22.83;;
34711;SDS011;20941;42.408;25.634;2022-12-07T00:26:12;51.45;;;22.08;;
34711;SDS011;20941;42.408;25.634;2022-12-07T00:28:39;54.63;;;22.23;;
34711;SDS011;20941;42.408;25.634;2022-12-07T00:31:09;50.83;;;21.45;;
34711;SDS011;20941;42.408;25.634;2022-12-07T00:33:37;47.72;;;22.00;;
34711;SDS011;20941;42.408;25.634;2022-12-07T00:36:07;49.55;;;22.20;;
34711;SDS011;20941;42.408;25.634;2022-12-07T00:38:35;57.08;;;24.15;;
34711;SDS011;20941;42.408;25.634;2022-12-07T00:41:02;52.25;;;24.25;;
34711;SDS011;20941;42.408;25.634;2022-12-07T00:43:30;54.05;;;24.38;;
34711;SDS011;20941;42.408;25.634;2022-12-07T00:46:02;65.15;;;24.30;;
34711;SDS011;20941;42.408;25.634;2022-12-07T00:48:27;55.08;;;23.58;;
34711;SDS011;20941;42.408;25.634;2022-12-07T00:50:53;57.50;;;24.15;;
34711;SDS011;20941;42.408;25.634;2022-12-07T00:53:19;53.92;;;24.95;;
34711;SDS011;20941;42.408;25.634;2022-12-07T00:55:44;61.15;;;26.52;;
34711;SDS011;20941;42.408;25.634;2022-12-07T00:58:10;52.15;;;23.55;;
34711;SDS011;20941;42.408;25.634;2022-12-07T01:00:37;56.42;;;25.13;;
34711;SDS011;20941;42.408;25.634;2022-12-07T01:03:04;60.33;;;24.58;;
34711;SDS011;20941;42.408;25.634;2022-12-07T01:05:30;57.03;;;23.95;;
34711;SDS011;20941;42.408;25.634;2022-12-07T01:07:56;52.33;;;23.20;;
34711;SDS011;20941;42.408;25.634;2022-12-07T01:10:21;56.45;;;23.95;;
34711;SDS011;20941;42.408;25.634;2022-12-07T01:12:47;52.20;;;23.25;;
34711;SDS011;20941;42.408;25.634;2022-12-07T01:15:13;50.78;;;23.55;;
34711;SDS011;20941;42.408;25.634;2022-12-07T01:17:38;54.83;;;23.75;;
34711;SDS011;20941;42.408;25.634;2022-12-07T01:20:04;53.33;;;21.85;;
34711;SDS011;20941;42.408;25.634;2022-12-07T01:22:31;47.58;;;21.67;;
34711;SDS011;20941;42.408;25.634;2022-12-07T01:24:56;54.13;;;22.88;;
34711;SDS011;20941;42.408;25.634;2022-12-07T01:27:22;55.55;;;23.25;;
34711;SDS011;20941;42.408;25.634;2022-12-07T01:29:47;49.92;;;22.35;;
34711;SDS011;20941;42.408;25.634;2022-12-07T01:32:13;47.05;;;21.95;;
34711;SDS011;20941;42.408;25.634;2022-12-07T01:34:38;57.17;;;22.92;;
34711;SDS011;20941;42.408;25.634;2022-12-07T01:37:04;51.05;;;22.23;;
34711;SDS011;20941;42.408;25.634;2022-12-07T01:39:29;82.90;;;33.28;;
34711;SDS011;20941;42.408;25.634;2022-12-07T01:41:55;67.90;;;29.45;;
34711;SDS011;20941;42.408;25.634;2022-12-07T01:44:25;70.45;;;27.42;;
34711;SDS011;20941;42.408;25.634;2022-12-07T01:46:52;81.15;;;30.60;;
34711;SDS011;20941;42.408;25.634;2022-12-07T01:49:32;77.13;;;29.45;;
34711;SDS011;20941;42.408;25.634;2022-12-07T01:54:47;64.05;;;26.75;;
34711;SDS011;20941;42.408;25.634;2022-12-07T01:57:14;61.80;;;25.63;;
34711;SDS011;20941;42.408;25.634;2022-12-07T01:59:41;62.72;;;24.88;;
34711;SDS011;20941;42.408;25.634;2022-12-07T02:02:10;42.88;;;19.67;;
34711;SDS011;20941;42.408;25.634;2022-12-07T02:04:45;47.13;;;20.83;;
34711;SDS011;20941;42.408;25.634;2022-12-07T02:07:11;44.30;;;18.95;;
34711;SDS011;20941;42.408;25.634;2022-12-07T02:09:37;48.42;;;20.88;;
34711;SDS011;20941;42.408;25.634;2022-12-07T02:12:14;47.83;;;20.38;;
34711;SDS011;20941;42.408;25.634;2022-12-07T02:14:40;42.15;;;20.38;;
34711;SDS011;20941;42.408;25.634;2022-12-07T02:17:26;48.92;;;20.92;;
34711;SDS011;20941;42.408;25.634;2022-12-07T02:23:04;46.03;;;20.40;;
34711;SDS011;20941;42.408;25.634;2022-12-07T02:25:55;45.95;;;22.38;;
34711;SDS011;20941;42.408;25.634;2022-12-07T02:28:36;51.20;;;23.65;;
34711;SDS011;20941;42.408;25.634;2022-12-07T02:31:13;44.47;;;21.67;;
34711;SDS011;20941;42.408;25.634;2022-12-07T02:33:49;44.35;;;21.38;;
34711;SDS011;20941;42.408;25.634;2022-12-07T02:36:25;44.25;;;20.45;;
34711;SDS011;20941;42.408;25.634;2022-12-07T02:39:04;42.40;;;19.40;;
34711;SDS011;20941;42.408;25.634;2022-12-07T02:41:35;40.63;;;18.42;;
34711;SDS011;20941;42.408;25.634;2022-12-07T02:44:07;42.63;;;19.05;;
34711;SDS011;20941;42.408;25.634;2022-12-07T02:46:42;43.85;;;18.60;;
34711;SDS011;20941;42.408;25.634;2022-12-07T02:49:12;39.90;;;17.48;;
34711;SDS011;20941;42.408;25.634;2022-12-07T02:51:39;41.80;;;19.25;;
34711;SDS011;20941;42.408;25.634;2022-12-07T02:54:16;38.40;;;16.80;;
34711;SDS011;20941;42.408;25.634;2022-12-07T03:02:26;33.75;;;16.48;;
34711;SDS011;20941;42.408;25.634;2022-12-07T03:07:35;33.60;;;16.10;;
34711;SDS011;20941;42.408;25.634;2022-12-07T03:10:13;36.58;;;15.75;;
34711;SDS011;20941;42.408;25.634;2022-12-07T03:13:03;31.67;;;15.13;;
34711;SDS011;20941;42.408;25.634;2022-12-07T03:18:40;37.17;;;16.00;;
34711;SDS011;20941;42.408;25.634;2022-12-07T03:21:14;34.50;;;15.95;;
34711;SDS011;20941;42.408;25.634;2022-12-07T03:23:45;34.08;;;14.35;;
34711;SDS011;20941;42.408;25.634;2022-12-07T03:26:15;33.78;;;15.70;;
34711;SDS011;20941;42.408;25.634;2022-12-07T03:28:44;37.85;;;16.85;;
34711;SDS011;20941;42.408;25.634;2022-12-07T03:31:17;35.58;;;16.13;;
34711;SDS011;20941;42.408;25.634;2022-12-07T03:33:52;36.50;;;16.20;;
34711;SDS011;20941;42.408;25.634;2022-12-07T03:36:30;40.08;;;16.65;;
34711;SDS011;20941;42.408;25.634;2022-12-07T03:41:54;33.42;;;15.40;;
34711;SDS011;20941;42.408;25.634;2022-12-07T03:44:20;39.67;;;16.27;;
34711;SDS011;20941;42.408;25.634;2022-12-07T03:47:04;39.20;;;17.48;;
34711;SDS011;20941;42.408;25.634;2022-12-07T03:52:08;38.70;;;17.77;;
34711;SDS011;20941;42.408;25.634;2022-12-07T03:54:51;35.10;;;17.25;;
34711;SDS011;20941;42.408;25.634;2022-12-07T03:57:23;38.60;;;17.88;;
34711;SDS011;20941;42.408;25.634;2022-12-07T03:59:52;43.72;;;18.95;;
34711;SDS011;20941;42.408;25.634;2022-12-07T04:02:20;37.50;;;17.75;;
34711;SDS011;20941;42.408;25.634;2022-12-07T04:04:45;39.80;;;18.88;;
34711;SDS011;20941;42.408;25.634;2022-12-07T04:07:11;46.50;;;18.63;;
34711;SDS011;20941;42.408;25.634;2022-12-07T04:09:37;43.40;;;19.92;;
34711;SDS011;20941;42.408;25.634;2022-12-07T04:12:04;39.70;;;19.13;;
34711;SDS011;20941;42.408;25.634;2022-12-07T04:14:29;39.50;;;19.60;;
34711;SDS011;20941;42.408;25.634;2022-12-07T04:16:56;43.63;;;20.50;;
34711;SDS011;20941;42.408;25.634;2022-12-07T04:19:24;52.03;;;21.23;;
34711;SDS011;20941;42.408;25.634;2022-12-07T04:21:52;42.00;;;20.25;;
34711;SDS011;20941;42.408;25.634;2022-12-07T04:24:17;46.50;;;20.48;;
34711;SDS011;20941;42.408;25.634;2022-12-07T04:26:43;49.95;;;19.80;;
34711;SDS011;20941;42.408;25.634;2022-12-07T04:29:10;47.90;;;21.92;;
34711;SDS011;20941;42.408;25.634;2022-12-07T04:31:37;48.58;;;20.90;;
34711;SDS011;20941;42.408;25.634;2022-12-07T04:34:03;44.80;;;22.35;;
34711;SDS011;20941;42.408;25.634;2022-12-07T04:36:29;54.40;;;24.85;;
34711;SDS011;20941;42.408;25.634;2022-12-07T04:38:55;52.42;;;24.77;;
34711;SDS011;20941;42.408;25.634;2022-12-07T04:41:22;45.88;;;21.95;;
34711;SDS011;20941;42.408;25.634;2022-12-07T04:43:53;49.90;;;21.75;;
34711;SDS011;20941;42.408;25.634;2022-12-07T04:46:23;48.10;;;20.70;;
34711;SDS011;20941;42.408;25.634;2022-12-07T04:48:49;45.63;;;20.55;;
34711;SDS011;20941;42.408;25.634;2022-12-07T04:51:17;45.47;;;21.63;;
34711;SDS011;20941;42.408;25.634;2022-12-07T04:53:45;54.35;;;23.27;;
34711;SDS011;20941;42.408;25.634;2022-12-07T04:56:11;55.78;;;24.05;;
34711;SDS011;20941;42.408;25.634;2022-12-07T04:58:36;56.35;;;23.85;;
34711;SDS011;20941;42.408;25.634;2022-12-07T05:01:02;60.45;;;28.10;;
34711;SDS011;20941;42.408;25.634;2022-12-07T05:03:28;60.30;;;25.15;;
34711;SDS011;20941;42.408;25.634;2022-12-07T05:05:53;62.97;;;24.48;;
34711;SDS011;20941;42.408;25.634;2022-12-07T05:08:19;54.47;;;23.10;;
34711;SDS011;20941;42.408;25.634;2022-12-07T05:10:44;60.50;;;23.65;;
34711;SDS011;20941;42.408;25.634;2022-12-07T05:13:10;50.80;;;23.58;;
34711;SDS011;20941;42.408;25.634;2022-12-07T05:15:35;51.63;;;23.23;;
34711;SDS011;20941;42.408;25.634;2022-12-07T05:18:01;47.33;;;22.02;;
34711;SDS011;20941;42.408;25.634;2022-12-07T05:20:28;48.88;;;22.02;;
34711;SDS011;20941;42.408;25.634;2022-12-07T05:22:54;43.97;;;21.90;;
34711;SDS011;20941;42.408;25.634;2022-12-07T05:25:19;57.55;;;24.75;;
34711;SDS011;20941;42.408;25.634;2022-12-07T05:27:45;52.58;;;24.30;;
34711;SDS011;20941;42.408;25.634;2022-12-07T05:30:10;47.65;;;23.63;;
34711;SDS011;20941;42.408;25.634;2022-12-07T05:32:36;53.95;;;23.27;;
34711;SDS011;20941;42.408;25.634;2022-12-07T05:35:02;56.50;;;30.50;;
34711;SDS011;20941;42.408;25.634;2022-12-07T05:37:27;59.65;;;26.23;;
34711;SDS011;20941;42.408;25.634;2022-12-07T05:39:53;61.65;;;30.55;;
34711;SDS011;20941;42.408;25.634;2022-12-07T05:42:18;64.97;;;29.42;;
34711;SDS011;20941;42.408;25.634;2022-12-07T05:44:45;54.63;;;26.63;;
34711;SDS011;20941;42.408;25.634;2022-12-07T05:47:11;59.40;;;27.70;;
34711;SDS011;20941;42.408;25.634;2022-12-07T05:49:38;130.10;;;53.42;;
34711;SDS011;20941;42.408;25.634;2022-12-07T05:52:04;70.95;;;30.73;;
34711;SDS011;20941;42.408;25.634;2022-12-07T05:54:29;62.78;;;29.40;;
34711;SDS011;20941;42.408;25.634;2022-12-07T05:56:55;57.35;;;25.73;;
34711;SDS011;20941;42.408;25.634;2022-12-07T05:59:21;65.90;;;27.83;;
34711;SDS011;20941;42.408;25.634;2022-12-07T06:01:50;65.22;;;27.58;;
34711;SDS011;20941;42.408;25.634;2022-12-07T06:04:17;73.13;;;32.60;;
34711;SDS011;20941;42.408;25.634;2022-12-07T06:06:44;86.15;;;34.55;;
34711;SDS011;20941;42.408;25.634;2022-12-07T06:09:09;67.28;;;31.00;;
34711;SDS011;20941;42.408;25.634;2022-12-07T06:11:35;92.90;;;38.70;;
34711;SDS011;20941;42.408;25.634;2022-12-07T06:14:19;66.03;;;26.05;;
34711;SDS011;20941;42.408;25.634;2022-12-07T06:16:45;79.97;;;26.45;;
34711;SDS011;20941;42.408;25.634;2022-12-07T06:19:10;348.13;;;95.43;;
34711;SDS011;20941;42.408;25.634;2022-12-07T06:21:36;200.48;;;58.85;;
34711;SDS011;20941;42.408;25.634;2022-12-07T06:24:02;120.90;;;39.33;;
34711;SDS011;20941;42.408;25.634;2022-12-07T06:26:28;112.57;;;38.35;;
34711;SDS011;20941;42.408;25.634;2022-12-07T06:28:53;93.68;;;34.58;;
34711;SDS011;20941;42.408;25.634;2022-12-07T06:31:19;93.10;;;33.05;;
34711;SDS011;20941;42.408;25.634;2022-12-07T06:33:44;79.88;;;31.83;;
34711;SDS011;20941;42.408;25.634;2022-12-07T06:36:10;72.70;;;32.22;;
34711;SDS011;20941;42.408;25.634;2022-12-07T06:38:35;78.32;;;33.03;;
34711;SDS011;20941;42.408;25.634;2022-12-07T06:41:01;74.28;;;33.20;;
34711;SDS011;20941;42.408;25.634;2022-12-07T06:43:29;88.72;;;32.75;;
34711;SDS011;20941;42.408;25.634;2022-12-07T06:45:56;75.95;;;30.05;;
34711;SDS011;20941;42.408;25.634;2022-12-07T06:48:21;67.05;;;25.45;;
34711;SDS011;20941;42.408;25.634;2022-12-07T06:50:47;57.88;;;23.23;;
34711;SDS011;20941;42.408;25.634;2022-12-07T06:53:13;59.72;;;23.00;;
34711;SDS011;20941;42.408;25.634;2022-12-07T06:55:38;59.15;;;22.70;;
34711;SDS011;20941;42.408;25.634;2022-12-07T06:58:04;62.00;;;24.73;;
34711;SDS011;20941;42.408;25.634;2022-12-07T07:00:30;66.13;;;27.13;;
34711;SDS011;20941;42.408;25.634;2022-12-07T07:02:55;63.00;;;30.08;;
34711;SDS011;20941;42.408;25.634;2022-12-07T07:05:21;72.15;;;36.38;;
34711;SDS011;20941;42.408;25.634;2022-12-07T07:07:48;67.10;;;29.90;;
34711;SDS011;20941;42.408;25.634;2022-12-07T07:10:14;63.65;;;31.33;;
34711;SDS011;20941;42.408;25.634;2022-12-07T07:12:39;65.00;;;30.80;;
34711;SDS011;20941;42.408;25.634;2022-12-07T07:15:05;63.40;;;24.40;;
34711;SDS011;20941;42.408;25.634;2022-12-07T07:17:31;50.30;;;23.67;;
34711;SDS011;20941;42.408;25.634;2022-12-07T07:19:56;57.00;;;25.85;;
34711;SDS011;20941;42.408;25.634;2022-12-07T07:22:24;62.83;;;25.58;;
34711;SDS011;20941;42.408;25.634;2022-12-07T07:24:49;66.57;;;25.65;;
34711;SDS011;20941;42.408;25.634;2022-12-07T07:27:15;50.60;;;23.38;;
34711;SDS011;20941;42.408;25.634;2022-12-07T07:29:40;53.83;;;22.25;;
34711;SDS011;20941;42.408;25.634;2022-12-07T07:32:06;53.92;;;22.85;;
34711;SDS011;20941;42.408;25.634;2022-12-07T07:34:32;54.55;;;22.10;;
34711;SDS011;20941;42.408;25.634;2022-12-07T07:36:58;49.95;;;21.98;;
34711;SDS011;20941;42.408;25.634;2022-12-07T07:39:24;50.47;;;22.40;;
34711;SDS011;20941;42.408;25.634;2022-12-07T07:41:49;56.88;;;24.92;;
34711;SDS011;20941;42.408;25.634;2022-12-07T07:44:15;61.15;;;26.55;;
34711;SDS011;20941;42.408;25.634;2022-12-07T07:46:40;56.20;;;25.45;;
34711;SDS011;20941;42.408;25.634;2022-12-07T07:49:06;80.63;;;37.90;;
34711;SDS011;20941;42.408;25.634;2022-12-07T07:51:31;69.82;;;33.97;;
34711;SDS011;20941;42.408;25.634;2022-12-07T07:53:57;65.05;;;33.60;;
34711;SDS011;20941;42.408;25.634;2022-12-07T07:56:22;75.43;;;37.70;;
34711;SDS011;20941;42.408;25.634;2022-12-07T07:58:51;57.22;;;31.15;;
34711;SDS011;20941;42.408;25.634;2022-12-07T08:01:17;84.18;;;36.80;;
34711;SDS011;20941;42.408;25.634;2022-12-07T08:03:44;80.45;;;39.55;;
34711;SDS011;20941;42.408;25.634;2022-12-07T08:06:11;75.93;;;38.00;;
34711;SDS011;20941;42.408;25.634;2022-12-07T08:08:37;69.43;;;36.35;;
34711;SDS011;20941;42.408;25.634;2022-12-07T08:11:06;80.38;;;43.03;;
34711;SDS011;20941;42.408;25.634;2022-12-07T08:13:32;60.03;;;30.38;;
34711;SDS011;20941;42.408;25.634;2022-12-07T08:15:58;65.50;;;32.10;;
34711;SDS011;20941;42.408;25.634;2022-12-07T08:18:28;63.80;;;33.00;;
34711;SDS011;20941;42.408;25.634;2022-12-07T08:20:58;72.43;;;38.78;;
34711;SDS011;20941;42.408;25.634;2022-12-07T08:23:25;78.63;;;40.67;;
34711;SDS011;20941;42.408;25.634;2022-12-07T08:25:51;77.72;;;38.85;;
34711;SDS011;20941;42.408;25.634;2022-12-07T08:28:17;57.08;;;31.73;;
34711;SDS011;20941;42.408;25.634;2022-12-07T08:30:42;70.25;;;32.22;;
34711;SDS011;20941;42.408;25.634;2022-12-07T08:33:09;63.60;;;32.88;;
34711;SDS011;20941;42.408;25.634;2022-12-07T08:35:35;61.08;;;29.25;;
34711;SDS011;20941;42.408;25.634;2022-12-07T08:38:01;62.80;;;28.98;;
34711;SDS011;20941;42.408;25.634;2022-12-07T08:40:27;60.08;;;28.13;;
34711;SDS011;20941;42.408;25.634;2022-12-07T08:42:53;60.20;;;25.38;;
34711;SDS011;20941;42.408;25.634;2022-12-07T08:45:19;58.00;;;26.77;;
34711;SDS011;20941;42.408;25.634;2022-12-07T08:47:56;57.30;;;27.63;;
34711;SDS011;20941;42.408;25.634;2022-12-07T08:50:27;56.55;;;27.73;;
34711;SDS011;20941;42.408;25.634;2022-12-07T08:52:55;56.67;;;28.25;;
34711;SDS011;20941;42.408;25.634;2022-12-07T08:55:23;62.45;;;27.65;;
34711;SDS011;20941;42.408;25.634;2022-12-07T08:57:49;60.40;;;27.45;;
34711;SDS011;20941;42.408;25.634;2022-12-07T09:00:15;61.92;;;28.70;;
34711;SDS011;20941;42.408;25.634;2022-12-07T09:02:43;55.92;;;27.08;;
34711;SDS011;20941;42.408;25.634;2022-12-07T09:05:11;54.80;;;25.65;;
34711;SDS011;20941;42.408;25.634;2022-12-07T09:07:39;59.42;;;25.98;;
34711;SDS011;20941;42.408;25.634;2022-12-07T09:10:08;63.42;;;26.33;;
34711;SDS011;20941;42.408;25.634;2022-12-07T09:12:34;58.83;;;24.15;;
34711;SDS011;20941;42.408;25.634;2022-12-07T09:14:59;53.40;;;24.77;;
34711;SDS011;20941;42.408;25.634;2022-12-07T09:17:26;54.03;;;25.17;;
34711;SDS011;20941;42.408;25.634;2022-12-07T09:19:51;59.08;;;26.33;;
34711;SDS011;20941;42.408;25.634;2022-12-07T09:22:17;48.95;;;23.75;;
34711;SDS011;20941;42.408;25.634;2022-12-07T09:24:43;62.55;;;26.90;;
34711;SDS011;20941;42.408;25.634;2022-12-07T09:27:10;56.05;;;24.90;;
34711;SDS011;20941;42.408;25.634;2022-12-07T09:29:36;62.10;;;26.88;;
34711;SDS011;20941;42.408;25.634;2022-12-07T09:32:02;61.63;;;27.70;;
34711;SDS011;20941;42.408;25.634;2022-12-07T09:34:30;60.95;;;25.70;;
34711;SDS011;20941;42.408;25.634;2022-12-07T09:36:56;59.55;;;26.52;;
34711;SDS011;20941;42.408;25.634;2022-12-07T09:39:22;73.72;;;26.45;;
34711;SDS011;20941;42.408;25.634;2022-12-07T09:41:47;59.15;;;25.55;;
34711;SDS011;20941;42.408;25.634;2022-12-07T09:44:14;65.20;;;26.48;;
34711;SDS011;20941;42.408;25.634;2022-12-07T09:46:47;65.70;;;28.48;;
34711;SDS011;20941;42.408;25.634;2022-12-07T09:49:18;64.03;;;25.38;;
34711;SDS011;20941;42.408;25.634;2022-12-07T09:51:45;48.97;;;22.63;;
34711;SDS011;20941;42.408;25.634;2022-12-07T09:54:12;66.80;;;23.30;;
34711;SDS011;20941;42.408;25.634;2022-12-07T09:56:39;47.33;;;22.23;;
34711;SDS011;20941;42.408;25.634;2022-12-07T09:59:05;51.00;;;21.73;;
34711;SDS011;20941;42.408;25.634;2022-12-07T10:01:32;52.42;;;22.10;;
34711;SDS011;20941;42.408;25.634;2022-12-07T10:07:00;52.03;;;21.65;;
34711;SDS011;20941;42.408;25.634;2022-12-07T10:09:25;57.22;;;21.70;;
34711;SDS011;20941;42.408;25.634;2022-12-07T10:11:57;41.17;;;19.73;;
34711;SDS011;20941;42.408;25.634;2022-12-07T10:14:32;52.88;;;21.10;;
34711;SDS011;20941;42.408;25.634;2022-12-07T10:16:58;51.83;;;21.15;;
34711;SDS011;20941;42.408;25.634;2022-12-07T10:19:31;48.67;;;22.27;;
34711;SDS011;20941;42.408;25.634;2022-12-07T10:22:14;40.20;;;19.52;;
34711;SDS011;20941;42.408;25.634;2022-12-07T10:24:41;62.10;;;22.20;;
34711;SDS011;20941;42.408;25.634;2022-12-07T10:27:41;49.00;;;18.17;;
34711;SDS011;20941;42.408;25.634;2022-12-07T10:30:01;46.60;;;19.35;;
34711;SDS011;20941;42.408;25.634;2022-12-07T10:32:34;52.08;;;20.45;;
34711;SDS011;20941;42.408;25.634;2022-12-07T10:37:47;44.70;;;18.90;;
34711;SDS011;20941;42.408;25.634;2022-12-07T10:40:24;39.47;;;17.50;;
34711;SDS011;20941;42.408;25.634;2022-12-07T10:43:02;48.75;;;18.35;;
34711;SDS011;20941;42.408;25.634;2022-12-07T10:48:30;35.97;;;16.20;;
34711;SDS011;20941;42.408;25.634;2022-12-07T10:53:35;46.83;;;15.73;;
34711;SDS011;20941;42.408;25.634;2022-12-07T11:03:55;41.67;;;18.30;;
34711;SDS011;20941;42.408;25.634;2022-12-07T11:06:39;47.40;;;18.38;;
34711;SDS011;20941;42.408;25.634;2022-12-07T11:09:29;64.28;;;19.50;;
34711;SDS011;20941;42.408;25.634;2022-12-07T11:12:09;42.67;;;16.98;;
34711;SDS011;20941;42.408;25.634;2022-12-07T11:18:09;30.92;;;16.27;;
34711;SDS011;20941;42.408;25.634;2022-12-07T11:20:27;34.05;;;16.52;;
34711;SDS011;20941;42.408;25.634;2022-12-07T11:39:22;32.30;;;14.38;;
34711;SDS011;20941;42.408;25.634;2022-12-07T11:42:00;26.23;;;11.93;;
34711;SDS011;20941;42.408;25.634;2022-12-07T11:45:01;27.08;;;13.25;;
34711;SDS011;20941;42.408;25.634;2022-12-07T11:58:34;39.53;;;14.77;;
34711;SDS011;20941;42.408;25.634;2022-12-07T12:01:25;32.72;;;12.75;;
34711;SDS011;20941;42.408;25.634;2022-12-07T12:06:40;40.35;;;15.60;;
34711;SDS011;20941;42.408;25.634;2022-12-07T12:09:17;38.78;;;15.88;;
34711;SDS011;20941;42.408;25.634;2022-12-07T12:12:05;38.30;;;14.38;;
34711;SDS011;20941;42.408;25.634;2022-12-07T12:15:02;38.33;;;14.43;;
34711;SDS011;20941;42.408;25.634;2022-12-07T12:25:55;40.00;;;14.52;;
34711;SDS011;20941;42.408;25.634;2022-12-07T12:28:32;42.88;;;14.00;;
34711;SDS011;20941;42.408;25.634;2022-12-07T12:31:13;46.47;;;14.52;;
34711;SDS011;20941;42.408;25.634;2022-12-07T12:37:13;28.63;;;12.65;;
34711;SDS011;20941;42.408;25.634;2022-12-07T12:42:46;42.65;;;14.90;;
34711;SDS011;20941;42.408;25.634;2022-12-07T12:45:18;48.60;;;15.65;;
34711;SDS011;20941;42.408;25.634;2022-12-07T12:55:27;39.45;;;16.55;;
34711;SDS011;20941;42.408;25.634;2022-12-07T13:00:42;59.40;;;17.95;;
34711;SDS011;20941;42.408;25.634;2022-12-07T13:03:16;48.28;;;17.38;;
34711;SDS011;20941;42.408;25.634;2022-12-07T13:05:49;45.13;;;17.83;;
34711;SDS011;20941;42.408;25.634;2022-12-07T13:08:49;51.47;;;18.05;;
34711;SDS011;20941;42.408;25.634;2022-12-07T13:11:20;51.78;;;20.67;;
34711;SDS011;20941;42.408;25.634;2022-12-07T13:14:35;46.70;;;18.20;;
34711;SDS011;20941;42.408;25.634;2022-12-07T13:16:58;64.78;;;19.50;;
34711;SDS011;20941;42.408;25.634;2022-12-07T13:25:05;47.53;;;19.57;;
34711;SDS011;20941;42.408;25.634;2022-12-07T13:27:56;54.83;;;22.02;;
34711;SDS011;20941;42.408;25.634;2022-12-07T13:30:47;49.50;;;20.67;;
34711;SDS011;20941;42.408;25.634;2022-12-07T13:33:36;35.65;;;18.38;;
34711;SDS011;20941;42.408;25.634;2022-12-07T13:36:02;46.10;;;17.30;;
34711;SDS011;20941;42.408;25.634;2022-12-07T13:38:29;46.10;;;17.48;;
34711;SDS011;20941;42.408;25.634;2022-12-07T13:43:27;49.75;;;17.20;;
34711;SDS011;20941;42.408;25.634;2022-12-07T13:45:58;48.40;;;16.95;;
34711;SDS011;20941;42.408;25.634;2022-12-07T13:48:45;40.67;;;16.70;;
34711;SDS011;20941;42.408;25.634;2022-12-07T13:51:26;36.13;;;15.60;;
34711;SDS011;20941;42.408;25.634;2022-12-07T13:53:59;34.58;;;15.15;;
34711;SDS011;20941;42.408;25.634;2022-12-07T13:56:28;40.45;;;16.08;;
34711;SDS011;20941;42.408;25.634;2022-12-07T13:58:58;40.00;;;17.35;;
34711;SDS011;20941;42.408;25.634;2022-12-07T14:01:24;45.63;;;16.77;;
34711;SDS011;20941;42.408;25.634;2022-12-07T14:03:50;40.85;;;17.67;;
34711;SDS011;20941;42.408;25.634;2022-12-07T14:06:27;41.83;;;17.98;;
34711;SDS011;20941;42.408;25.634;2022-12-07T14:09:06;47.53;;;18.67;;
34711;SDS011;20941;42.408;25.634;2022-12-07T14:11:33;37.53;;;18.23;;
34711;SDS011;20941;42.408;25.634;2022-12-07T14:14:00;48.95;;;19.42;;
34711;SDS011;20941;42.408;25.634;2022-12-07T14:16:34;42.40;;;18.15;;
34711;SDS011;20941;42.408;25.634;2022-12-07T14:19:05;46.83;;;19.35;;
34711;SDS011;20941;42.408;25.634;2022-12-07T14:22:26;50.10;;;19.42;;
34711;SDS011;20941;42.408;25.634;2022-12-07T14:27:38;49.42;;;19.20;;
34711;SDS011;20941;42.408;25.634;2022-12-07T14:30:04;48.60;;;19.95;;
34711;SDS011;20941;42.408;25.634;2022-12-07T14:32:31;50.35;;;21.38;;
34711;SDS011;20941;42.408;25.634;2022-12-07T14:35:08;48.80;;;20.23;;
34711;SDS011;20941;42.408;25.634;2022-12-07T14:37:36;52.63;;;21.02;;
34711;SDS011;20941;42.408;25.634;2022-12-07T14:40:02;58.22;;;21.15;;
34711;SDS011;20941;42.408;25.634;2022-12-07T14:42:29;54.83;;;20.85;;
34711;SDS011;20941;42.408;25.634;2022-12-07T14:44:56;50.17;;;21.33;;
34711;SDS011;20941;42.408;25.634;2022-12-07T14:47:23;61.78;;;21.70;;
34711;SDS011;20941;42.408;25.634;2022-12-07T14:49:50;54.08;;;22.83;;
34711;SDS011;20941;42.408;25.634;2022-12-07T14:52:17;64.88;;;25.13;;
34711;SDS011;20941;42.408;25.634;2022-12-07T14:54:45;76.32;;;26.60;;
34711;SDS011;20941;42.408;25.634;2022-12-07T14:57:11;194.93;;;49.83;;
34711;SDS011;20941;42.408;25.634;2022-12-07T14:59:37;224.63;;;61.92;;
34711;SDS011;20941;42.408;25.634;2022-12-07T15:02:03;179.70;;;50.38;;
34711;SDS011;20941;42.408;25.634;2022-12-07T15:04:29;152.80;;;40.70;;
34711;SDS011;20941;42.408;25.634;2022-12-07T15:06:58;98.80;;;31.95;;
34711;SDS011;20941;42.408;25.634;2022-12-07T15:09:25;80.43;;;27.73;;
34711;SDS011;20941;42.408;25.634;2022-12-07T15:11:51;88.97;;;30.35;;
34711;SDS011;20941;42.408;25.634;2022-12-07T15:14:16;102.22;;;35.13;;
34711;SDS011;20941;42.408;25.634;2022-12-07T15:16:42;99.25;;;36.83;;
34711;SDS011;20941;42.408;25.634;2022-12-07T15:19:12;103.43;;;37.03;;
34711;SDS011;20941;42.408;25.634;2022-12-07T15:21:43;97.95;;;35.67;;
34711;SDS011;20941;42.408;25.634;2022-12-07T15:24:09;88.43;;;33.10;;
34711;SDS011;20941;42.408;25.634;2022-12-07T15:26:36;97.05;;;35.33;;
34711;SDS011;20941;42.408;25.634;2022-12-07T15:29:02;97.28;;;33.30;;
34711;SDS011;20941;42.408;25.634;2022-12-07T15:31:29;64.47;;;24.77;;
34711;SDS011;20941;42.408;25.634;2022-12-07T15:33:54;63.83;;;23.88;;
34711;SDS011;20941;42.408;25.634;2022-12-07T15:36:22;62.25;;;23.30;;
34711;SDS011;20941;42.408;25.634;2022-12-07T15:38:49;63.63;;;23.85;;
34711;SDS011;20941;42.408;25.634;2022-12-07T15:41:15;58.92;;;24.42;;
34711;SDS011;20941;42.408;25.634;2022-12-07T15:43:41;69.65;;;25.13;;
34711;SDS011;20941;42.408;25.634;2022-12-07T15:46:58;64.47;;;27.08;;
34711;SDS011;20941;42.408;25.634;2022-12-07T15:49:17;81.30;;;29.13;;
34711;SDS011;20941;42.408;25.634;2022-12-07T15:51:44;86.50;;;30.40;;
34711;SDS011;20941;42.408;25.634;2022-12-07T15:54:16;77.13;;;30.13;;
34711;SDS011;20941;42.408;25.634;2022-12-07T15:56:50;78.40;;;30.75;;
34711;SDS011;20941;42.408;25.634;2022-12-07T15:59:16;75.60;;;29.92;;
34711;SDS011;20941;42.408;25.634;2022-12-07T16:01:42;73.32;;;29.25;;
34711;SDS011;20941;42.408;25.634;2022-12-07T16:04:08;77.75;;;29.38;;
34711;SDS011;20941;42.408;25.634;2022-12-07T16:06:33;80.68;;;28.95;;
34711;SDS011;20941;42.408;25.634;2022-12-07T16:08:59;72.78;;;29.83;;
34711;SDS011;20941;42.408;25.634;2022-12-07T16:11:25;74.72;;;31.58;;
34711;SDS011;20941;42.408;25.634;2022-12-07T16:13:50;66.93;;;27.17;;